Time;durP1;ratioP1;P1;durP2;ratioP2;P2;SDS_P1;SDS_P2;PMS_P1;PMS_P2;Temp;Humidity;BMP_temperature;BMP_pressure;BME280_temperature;BME280_humidity;BME280_pressure;Samples;Min_cycle;Max_cycle;Signal;HPM_P1;HPM_P2
2023/08/06 00:02:19;;;;;;;4.90;4.40;;;;;;;21.54;60.45;97989.59;6892669;28;20326;-81
2023/08/06 00:05:42;;;;;;;8.47;4.47;;;;;;;21.46;60.25;97991.06;6892386;28;20303;-81
2023/08/06 00:09:04;;;;;;;5.43;4.50;;;;;;;21.16;61.84;97982.38;6893104;28;20234;-81
2023/08/06 00:12:25;;;;;;;5.20;4.70;;;;;;;21.06;61.21;97941.41;6889505;28;20315;-82
2023/08/06 00:15:48;;;;;;;5.50;5.00;;;;;;;20.95;62.01;97970.03;6892411;28;20260;-82
2023/08/06 00:19:10;;;;;;;5.60;5.10;;;;;;;21.13;62.12;97984.88;6895563;28;20319;-82
2023/08/06 00:22:32;;;;;;;4.83;4.43;;;;;;;21.39;60.79;97976.88;6918630;28;20231;-82
2023/08/06 00:25:53;;;;;;;5.90;4.50;;;;;;;21.58;60.14;97966.75;6922594;28;20207;-82
2023/08/06 00:29:15;;;;;;;5.20;4.70;;;;;;;21.40;60.13;97945.59;6900509;28;20721;-82
2023/08/06 00:32:38;;;;;;;4.90;4.40;;;;;;;21.37;60.73;97973.59;6894197;28;20283;-81
2023/08/06 00:35:59;;;;;;;5.20;4.67;;;;;;;21.44;60.30;97976.00;6891761;28;20287;-82
2023/08/06 00:39:21;;;;;;;6.33;4.90;;;;;;;21.49;60.31;97975.94;6891961;28;20788;-81
2023/08/06 00:42:44;;;;;;;5.43;4.70;;;;;;;21.44;60.42;97959.53;6892847;28;20236;-81
2023/08/06 00:46:06;;;;;;;4.87;4.47;;;;;;;21.43;60.09;97950.47;6891857;28;20662;-81
2023/08/06 00:49:29;;;;;;;5.53;5.03;;;;;;;21.35;60.09;97967.59;6893774;28;20208;-82
2023/08/06 00:52:59;;;;;;;5.80;5.27;;;;;;;21.10;61.15;97969.03;7025510;27;20613;-85
2023/08/06 00:56:20;;;;;;;5.63;4.93;;;;;;;21.13;60.27;97961.03;7024874;28;20206;-85
2023/08/06 00:59:42;;;;;;;5.57;4.90;;;;;;;21.09;60.81;97962.72;7025382;28;20683;-83
2023/08/06 01:03:03;;;;;;;5.83;5.23;;;;;;;21.02;60.58;97940.34;7023388;28;20312;-86
2023/08/06 01:06:41;;;;;;;6.47;5.33;;;;;;;20.61;62.10;97965.69;6993799;28;20748;-79
2023/08/06 01:10:24;;;;;;;6.47;5.37;;;;;;;20.82;61.43;97962.44;6994427;28;20229;-81
2023/08/06 01:13:49;;;;;;;7.17;5.77;;;;;;;20.59;62.73;97959.72;6994274;28;20324;-80
2023/08/06 01:17:11;;;;;;;6.40;5.47;;;;;;;20.46;62.34;97949.44;6996273;28;20247;-81
2023/08/06 01:20:33;;;;;;;6.13;5.53;;;;;;;20.49;62.50;97946.09;6997276;28;20257;-82
2023/08/06 01:23:55;;;;;;;6.13;5.60;;;;;;;20.56;62.41;97941.09;6994616;28;20689;-82
2023/08/06 01:27:23;;;;;;;5.80;5.20;;;;;;;20.86;61.71;97938.84;6993000;28;20293;-82
2023/08/06 01:30:45;;;;;;;6.03;5.53;;;;;;;20.84;61.23;97927.38;6995735;28;20226;-83
2023/08/06 01:34:09;;;;;;;5.90;5.40;;;;;;;20.76;60.90;97924.47;6993476;28;20281;-82
2023/08/06 01:37:32;;;;;;;7.93;5.97;;;;;;;20.39;61.95;97929.81;6992926;28;20841;-82
2023/08/06 01:40:54;;;;;;;8.07;6.10;;;;;;;20.14;62.39;97910.84;6993623;28;20218;-82
2023/08/06 01:44:15;;;;;;;5.53;5.03;;;;;;;20.34;62.61;97914.22;6993093;28;20331;-82
2023/08/06 01:47:37;;;;;;;6.20;5.37;;;;;;;20.20;62.63;97910.53;6992868;28;20289;-82
2023/08/06 01:50:58;;;;;;;9.33;5.10;;;;;;;20.03;63.50;97920.22;6992760;28;20257;-82
2023/08/06 01:54:22;;;;;;;6.50;5.20;;;;;;;20.07;63.41;97924.88;6993097;28;20225;-82
2023/08/06 01:57:44;;;;;;;6.37;5.10;;;;;;;20.15;63.13;97920.69;6992654;28;20217;-82
2023/08/06 02:01:05;;;;;;;5.70;5.20;;;;;;;20.39;62.30;97905.97;6992598;28;20316;-82
2023/08/06 02:04:27;;;;;;;6.23;5.13;;;;;;;20.54;61.98;97911.28;7000245;28;20301;-82
2023/08/06 02:07:48;;;;;;;5.70;5.20;;;;;;;20.63;61.81;97909.53;7001799;28;20347;-82
2023/08/06 02:11:14;;;;;;;5.40;4.90;;;;;;;20.64;61.17;97904.88;7001951;28;20761;-82
2023/08/06 02:14:36;;;;;;;5.40;4.90;;;;;;;20.48;61.38;97897.94;6992366;28;20340;-83
2023/08/06 02:17:58;;;;;;;4.70;4.20;;;;;;;20.57;60.64;97902.47;6984040;28;20286;-81
2023/08/06 02:21:20;;;;;;;6.03;4.50;;;;;;;20.60;60.09;97890.13;6982743;28;20356;-82
2023/08/06 02:24:41;;;;;;;4.27;3.60;;;;;;;20.52;60.17;97886.09;6996150;28;20201;-82
2023/08/06 02:28:05;;;;;;;4.80;3.80;;;;;;;20.58;59.86;97886.88;6974352;28;20297;-81
2023/08/06 02:31:27;;;;;;;5.47;2.93;;;;;;;20.43;59.62;97881.53;6972924;28;20321;-82
2023/08/06 02:34:48;;;;;;;4.60;3.17;;;;;;;20.27;59.44;97858.19;6973671;28;20290;-82
2023/08/06 02:38:10;;;;;;;4.67;2.87;;;;;;;20.25;59.39;97863.13;6973354;28;20680;-82
2023/08/06 02:41:32;;;;;;;3.43;2.70;;;;;;;20.56;57.70;97862.50;6973284;28;20793;-83
2023/08/06 02:44:55;;;;;;;4.00;3.03;;;;;;;20.37;57.94;97858.88;6973812;28;20202;-82
2023/08/06 02:48:18;;;;;;;4.23;3.03;;;;;;;20.36;58.20;97850.97;6987902;28;20281;-82
2023/08/06 02:51:39;;;;;;;3.23;2.90;;;;;;;20.18;58.21;97851.69;6981357;28;20222;-82
2023/08/06 02:55:01;;;;;;;4.73;3.00;;;;;;;20.17;57.39;97850.88;6997891;28;20284;-82
2023/08/06 02:58:22;;;;;;;2.80;2.60;;;;;;;20.08;58.23;97857.28;6999858;28;20707;-82
2023/08/06 03:01:45;;;;;;;3.20;2.80;;;;;;;20.17;58.19;97842.66;6992204;28;20222;-83
2023/08/06 03:05:07;;;;;;;5.40;3.03;;;;;;;20.28;57.57;97844.19;6992052;28;20327;-82
2023/08/06 03:08:29;;;;;;;2.87;2.67;;;;;;;20.26;56.95;97834.63;6999319;28;20670;-82
2023/08/06 03:11:50;;;;;;;3.17;2.77;;;;;;;20.30;57.02;97835.69;6981045;28;20360;-82
2023/08/06 03:15:12;;;;;;;3.67;3.00;;;;;;;20.24;57.18;97839.59;6989017;28;20850;-82
2023/08/06 03:18:34;;;;;;;3.80;2.70;;;;;;;19.97;57.59;97833.81;6980510;28;20675;-82
2023/08/06 03:21:56;;;;;;;4.37;2.50;;;;;;;19.98;57.38;97822.59;6972657;28;20316;-82
2023/08/06 03:25:18;;;;;;;3.37;2.77;;;;;;;19.98;57.16;97835.47;6997583;28;20273;-83
2023/08/06 03:28:39;;;;;;;3.03;2.60;;;;;;;19.80;57.60;97826.03;6971877;28;20299;-82
2023/08/06 03:32:01;;;;;;;3.10;2.80;;;;;;;19.81;57.45;97822.19;6982731;28;20287;-83
2023/08/06 03:35:23;;;;;;;2.87;2.57;;;;;;;19.97;56.28;97817.38;6992776;28;20277;-82
2023/08/06 03:38:45;;;;;;;2.77;2.43;;;;;;;19.86;56.98;97826.81;6980742;28;20367;-83
2023/08/06 03:42:06;;;;;;;3.63;2.70;;;;;;;20.05;56.34;97819.53;6989519;28;20317;-82
2023/08/06 03:45:28;;;;;;;3.13;2.53;;;;;;;20.05;56.33;97822.25;6994242;28;20237;-82
2023/08/06 03:48:49;;;;;;;2.97;2.30;;;;;;;20.14;55.93;97818.63;6971288;28;20267;-82
2023/08/06 03:52:12;;;;;;;5.27;2.37;;;;;;;20.35;55.35;97824.69;6971807;28;20403;-83
2023/08/06 03:55:34;;;;;;;4.30;2.77;;;;;;;20.25;55.41;97816.59;6971711;28;20726;-81
2023/08/06 03:58:55;;;;;;;2.77;2.50;;;;;;;20.37;55.54;97822.47;6972262;28;20244;-81
2023/08/06 04:02:17;;;;;;;2.73;2.43;;;;;;;20.25;56.66;97822.88;6972640;28;20313;-81
2023/08/06 04:05:38;;;;;;;2.80;2.60;;;;;;;20.44;55.69;97820.19;6972797;28;20214;-82
2023/08/06 04:09:01;;;;;;;4.00;2.83;;;;;;;20.43;55.74;97808.44;6972644;28;20233;-81
2023/08/06 04:12:22;;;;;;;2.87;2.47;;;;;;;20.43;55.32;97815.84;6971983;28;20287;-82
2023/08/06 04:15:44;;;;;;;2.63;2.43;;;;;;;20.37;55.95;97820.56;6970547;28;20229;-82
2023/08/06 04:19:05;;;;;;;3.13;2.80;;;;;;;20.60;56.04;97825.22;6972648;28;20242;-84
2023/08/06 04:22:27;;;;;;;3.17;2.87;;;;;;;20.60;56.49;97827.13;6974712;28;20360;-83
2023/08/06 04:25:50;;;;;;;3.00;2.70;;;;;;;20.56;57.00;97826.06;6974931;28;20608;-82
2023/08/06 04:29:11;;;;;;;5.10;3.17;;;;;;;20.52;57.25;97831.31;6971363;28;20702;-82
2023/08/06 04:32:33;;;;;;;3.97;2.80;;;;;;;20.51;57.62;97832.44;6970772;28;20320;-82
2023/08/06 04:35:57;;;;;;;4.23;2.60;;;;;;;20.40;58.86;97838.34;6970237;28;20316;-82
2023/08/06 04:39:19;;;;;;;6.47;3.00;;;;;;;20.07;60.21;97845.53;6970629;28;20256;-83
2023/08/06 04:42:41;;;;;;;5.90;3.40;;;;;;;20.33;58.07;97835.94;6971020;28;20691;-82
2023/08/06 04:46:03;;;;;;;4.77;2.60;;;;;;;20.47;57.49;97831.41;6969924;28;20203;-81
2023/08/06 04:49:25;;;;;;;3.73;2.50;;;;;;;20.31;58.11;97835.41;6972215;28;20237;-81
2023/08/06 04:52:47;;;;;;;4.07;3.07;;;;;;;20.36;59.32;97837.28;6971923;28;20300;-82
2023/08/06 04:56:08;;;;;;;4.10;3.67;;;;;;;20.23;60.23;97843.44;6971744;28;20203;-82
2023/08/06 04:59:31;;;;;;;4.67;3.30;;;;;;;20.22;60.63;97836.34;6972416;28;20194;-82
2023/08/06 05:02:53;;;;;;;3.23;2.90;;;;;;;19.93;60.45;97836.31;6971232;28;20309;-80
2023/08/06 05:06:14;;;;;;;3.53;2.70;;;;;;;20.28;59.44;97840.66;6970919;28;20782;-81
2023/08/06 05:09:36;;;;;;;3.30;2.70;;;;;;;20.57;59.12;97844.16;6971864;28;20333;-82
2023/08/06 05:12:57;;;;;;;3.13;2.50;;;;;;;20.15;59.26;97824.91;6971980;28;20329;-81
2023/08/06 05:16:20;;;;;;;3.50;2.67;;;;;;;20.30;60.00;97849.38;6971542;28;20232;-81
2023/08/06 05:19:42;;;;;;;3.13;2.57;;;;;;;20.57;58.99;97850.44;6971625;28;20297;-81
2023/08/06 05:23:03;;;;;;;2.87;2.57;;;;;;;20.77;58.00;97851.00;6970994;28;20351;-81
2023/08/06 05:26:25;;;;;;;2.10;1.90;;;;;;;20.30;57.59;97828.31;6971358;28;20666;-81
2023/08/06 05:29:46;;;;;;;2.20;2.00;;;;;;;21.12;56.98;97847.03;6971787;28;20336;-83
2023/08/06 05:33:25;;;;;;;2.63;2.23;;;;;;;20.95;56.96;97856.84;6970277;28;20671;-82
2023/08/06 05:36:46;;;;;;;2.93;2.10;;;;;;;20.65;56.75;97789.56;6971429;28;20560;-82
2023/08/06 05:40:09;;;;;;;5.53;2.30;;;;;;;20.92;57.57;97857.44;6978236;28;20344;-83
2023/08/06 05:43:31;;;;;;;5.43;2.00;;;;;;;20.36;58.18;97846.31;6978566;28;20222;-83
2023/08/06 05:46:53;;;;;;;2.80;1.80;;;;;;;20.40;57.53;97791.78;6978831;28;20345;-82
2023/08/06 05:50:16;;;;;;;2.30;1.80;;;;;;;21.18;55.85;97852.13;6981807;28;20245;-82
2023/08/06 05:53:38;;;;;;;2.00;1.80;;;;;;;20.91;55.94;97858.53;6979136;28;20367;-83
2023/08/06 05:56:59;;;;;;;2.50;1.70;;;;;;;21.17;56.09;97857.09;6979408;28;20206;-82
2023/08/06 06:00:21;;;;;;;3.00;1.80;;;;;;;21.33;56.08;97870.28;7000882;28;20283;-83
2023/08/06 06:03:43;;;;;;;3.60;2.00;;;;;;;21.43;55.77;97867.41;6996629;28;20351;-82
2023/08/06 06:07:06;;;;;;;3.27;1.70;;;;;;;21.35;55.40;97868.88;6992527;28;20358;-82
2023/08/06 06:10:27;;;;;;;1.60;1.50;;;;;;;21.58;54.32;97861.66;7000225;28;20312;-82
2023/08/06 06:13:50;;;;;;;3.33;1.43;;;;;;;21.44;54.21;97866.28;6981854;28;20629;-80
2023/08/06 06:17:11;;;;;;;1.60;1.50;;;;;;;21.34;56.10;97874.66;6979006;28;20245;-82
2023/08/06 06:20:33;;;;;;;2.83;1.73;;;;;;;21.10;56.79;97882.13;6984795;28;20248;-81
2023/08/06 06:23:56;;;;;;;1.80;1.70;;;;;;;21.36;55.97;97873.25;6985295;28;20204;-81
2023/08/06 06:27:18;;;;;;;1.40;1.30;;;;;;;20.95;55.57;97876.03;6988142;28;20207;-81
2023/08/06 06:30:39;;;;;;;4.07;1.47;;;;;;;20.77;56.55;97885.81;6999009;28;20762;-81
2023/08/06 06:34:01;;;;;;;1.80;1.30;;;;;;;20.29;57.70;97886.09;6992787;28;20319;-81
2023/08/06 06:37:23;;;;;;;1.67;1.50;;;;;;;20.07;59.56;97891.22;6995809;28;20248;-81
2023/08/06 06:40:54;;;;;;;1.60;1.30;;;;;;;20.15;58.99;97887.84;6988704;28;20268;-81
2023/08/06 06:44:15;;;;;;;3.27;1.40;;;;;;;20.55;58.54;97893.75;6991802;28;20801;-82
2023/08/06 06:47:37;;;;;;;1.90;1.20;;;;;;;20.16;59.43;97887.56;6987341;28;20296;-81
2023/08/06 06:50:59;;;;;;;1.33;1.20;;;;;;;20.10;57.50;97879.72;6989760;28;20262;-79
2023/08/06 06:54:20;;;;;;;2.67;1.30;;;;;;;20.37;58.48;97879.97;6988043;28;20250;-80
2023/08/06 06:57:43;;;;;;;1.40;1.30;;;;;;;20.42;58.97;97890.88;6996249;28;20706;-82
2023/08/06 07:01:05;;;;;;;1.90;1.20;;;;;;;20.33;57.64;97889.88;6976125;28;20226;-82
2023/08/06 07:04:27;;;;;;;1.53;1.43;;;;;;;20.77;57.40;97890.47;6983551;28;20198;-82
2023/08/06 07:07:48;;;;;;;1.47;1.03;;;;;;;21.23;55.91;97889.63;6985733;28;20794;-82
2023/08/06 07:11:10;;;;;;;2.27;1.50;;;;;;;20.99;55.47;97891.59;6986741;28;20297;-82
2023/08/06 07:14:33;;;;;;;2.27;1.20;;;;;;;20.73;57.47;97883.94;6988865;28;20195;-82
2023/08/06 07:17:54;;;;;;;1.63;1.37;;;;;;;20.32;58.45;97891.78;6999154;28;20284;-81
2023/08/06 07:21:16;;;;;;;1.67;1.57;;;;;;;20.28;58.29;97895.41;7000662;28;20267;-82
2023/08/06 07:24:37;;;;;;;1.20;1.10;;;;;;;20.43;58.05;97893.31;7001446;28;20691;-82
2023/08/06 07:28:00;;;;;;;1.97;1.53;;;;;;;20.94;57.13;97899.06;6980938;28;20248;-81
2023/08/06 07:31:23;;;;;;;3.83;1.40;;;;;;;20.08;59.12;97906.53;6986315;28;20226;-82
2023/08/06 07:34:45;;;;;;;1.07;0.90;;;;;;;20.72;57.21;97894.09;6982422;28;20332;-81
2023/08/06 07:38:06;;;;;;;1.00;0.93;;;;;;;20.69;58.14;97894.66;6986098;28;20336;-82
2023/08/06 07:41:28;;;;;;;1.10;1.10;;;;;;;20.77;57.91;97902.25;6990320;28;20247;-81
2023/08/06 07:44:52;;;;;;;0.93;0.90;;;;;;;20.26;59.15;97894.88;7000937;28;20209;-82
2023/08/06 07:48:15;;;;;;;0.80;0.77;;;;;;;19.88;59.10;97895.75;6983466;28;20254;-82
2023/08/06 07:51:36;;;;;;;1.10;1.00;;;;;;;20.12;59.43;97913.06;6990255;28;20237;-81
2023/08/06 07:54:58;;;;;;;1.10;1.00;;;;;;;20.46;59.18;97903.69;7002270;28;20248;-82
2023/08/06 07:58:20;;;;;;;0.70;0.70;;;;;;;20.12;59.09;97902.94;6973791;28;20217;-80
2023/08/06 08:01:41;;;;;;;0.87;0.87;;;;;;;20.32;59.57;97908.22;6975077;28;20293;-81
2023/08/06 08:05:07;;;;;;;0.90;0.73;;;;;;;20.31;58.56;97900.28;6976088;28;20307;-82
2023/08/06 08:08:28;;;;;;;0.80;0.80;;;;;;;19.96;60.35;97912.34;6998017;28;20200;-81
2023/08/06 08:11:50;;;;;;;0.87;0.70;;;;;;;20.13;59.02;97914.69;6973511;28;20226;-86
2023/08/06 08:15:11;;;;;;;0.60;0.60;;;;;;;20.08;58.16;97917.47;6972625;28;20333;-83
2023/08/06 08:18:33;;;;;;;1.20;0.70;;;;;;;20.74;56.59;97880.13;6978723;28;20290;-82
2023/08/06 08:21:56;;;;;;;0.60;0.60;;;;;;;20.31;58.52;97895.66;6980542;28;20588;-82
2023/08/06 08:25:17;;;;;;;1.17;0.60;;;;;;;20.93;56.91;97889.22;7000846;28;20673;-83
2023/08/06 08:28:39;;;;;;;0.57;0.57;;;;;;;19.96;58.32;97908.78;6999165;28;20296;-83
2023/08/06 08:32:00;;;;;;;0.90;0.90;;;;;;;19.82;58.58;97884.00;6975415;28;20226;-83
2023/08/06 08:35:22;;;;;;;0.53;0.53;;;;;;;20.39;58.16;97896.94;6976565;28;20198;-82
2023/08/06 08:38:45;;;;;;;1.10;0.80;;;;;;;21.13;54.99;97894.44;6994689;28;20289;-84
2023/08/06 08:42:07;;;;;;;1.20;0.80;;;;;;;21.26;54.02;97858.88;7003331;28;20308;-82
2023/08/06 08:45:30;;;;;;;1.23;0.73;;;;;;;20.96;55.38;97892.19;7004128;28;20213;-82
2023/08/06 08:48:52;;;;;;;1.13;0.57;;;;;;;21.31;55.10;97878.81;7003543;28;20611;-82
2023/08/06 08:52:16;;;;;;;0.40;0.40;;;;;;;21.61;54.52;97891.25;7002922;28;20287;-82
2023/08/06 08:55:39;;;;;;;1.20;0.70;;;;;;;21.89;53.71;97887.56;6997603;28;20346;-82
2023/08/06 08:59:00;;;;;;;0.50;0.50;;;;;;;21.24;54.49;97894.81;7011683;28;20230;-82
2023/08/06 09:02:23;;;;;;;0.50;0.50;;;;;;;21.12;54.35;97887.31;7019475;28;20271;-80
2023/08/06 09:05:45;;;;;;;0.40;0.40;;;;;;;20.77;55.29;97887.72;7007157;28;20691;-82
2023/08/06 09:09:10;;;;;;;0.50;0.50;;;;;;;20.24;55.72;97905.28;7004229;28;20207;-81
2023/08/06 09:12:33;;;;;;;0.60;0.60;;;;;;;20.26;58.93;97903.06;6995851;28;20304;-81
2023/08/06 09:15:55;;;;;;;0.50;0.50;;;;;;;19.88;58.88;97904.75;6978586;28;20299;-82
2023/08/06 09:19:17;;;;;;;0.43;0.43;;;;;;;20.73;56.83;97893.00;6983461;28;20207;-81
2023/08/06 09:22:38;;;;;;;0.93;0.60;;;;;;;21.11;57.13;97908.41;6997916;28;20600;-82
2023/08/06 09:26:01;;;;;;;0.57;0.57;;;;;;;20.85;58.17;97901.59;6987082;28;20336;-82
2023/08/06 09:29:24;;;;;;;0.63;0.63;;;;;;;21.26;56.02;97905.50;7003627;28;20209;-85
2023/08/06 09:32:48;;;;;;;1.20;0.50;;;;;;;20.45;58.11;97918.50;7003104;28;20320;-82
2023/08/06 09:36:10;;;;;;;0.50;0.50;;;;;;;20.91;57.34;97907.84;7002390;28;20218;-84
2023/08/06 09:39:32;;;;;;;0.50;0.50;;;;;;;21.30;56.05;97898.31;6991785;28;20217;-81
2023/08/06 09:42:53;;;;;;;0.63;0.60;;;;;;;21.00;56.54;97906.94;6993366;28;20256;-81
2023/08/06 09:46:16;;;;;;;0.50;0.50;;;;;;;21.37;56.09;97909.72;7003330;28;20592;-81
2023/08/06 09:49:42;;;;;;;0.60;0.60;;;;;;;21.04;56.20;97907.19;7003281;28;20239;-82
2023/08/06 09:53:04;;;;;;;0.53;0.53;;;;;;;21.10;55.79;97892.28;7009303;28;20232;-82
2023/08/06 09:56:27;;;;;;;0.60;0.60;;;;;;;21.37;56.26;97904.25;7001162;28;20201;-86
2023/08/06 09:59:48;;;;;;;0.50;0.50;;;;;;;21.33;55.92;97912.25;7010911;28;20181;-82
2023/08/06 10:03:13;;;;;;;0.50;0.50;;;;;;;20.74;58.16;97915.72;7009289;28;20229;-82
2023/08/06 10:06:38;;;;;;;0.50;0.50;;;;;;;20.84;57.72;97928.19;7007640;28;20206;-83
2023/08/06 10:10:00;;;;;;;0.50;0.50;;;;;;;21.07;55.41;97903.81;6996406;28;20674;-88
2023/08/06 10:13:23;;;;;;;0.80;0.80;;;;;;;21.23;56.81;97926.09;6978996;28;20586;-81
2023/08/06 10:16:45;;;;;;;0.80;0.80;;;;;;;21.29;56.02;97916.69;6977734;28;20251;-83
2023/08/06 10:20:10;;;;;;;4.70;2.80;;;;;;;20.99;57.43;97897.06;6976350;28;20366;-86
2023/08/06 10:23:38;;;;;;;1.33;1.23;;;;;;;21.50;57.93;97929.00;6975316;28;20222;-88
2023/08/06 10:26:59;;;;;;;0.60;0.60;;;;;;;21.31;58.11;97939.13;6976257;28;20337;-87
2023/08/06 10:30:26;;;;;;;1.10;1.10;;;;;;;20.45;58.55;97800.75;6977087;28;20246;-85
2023/08/06 10:33:48;;;;;;;0.60;0.60;;;;;;;20.54;60.06;97911.28;6973608;28;20214;-86
2023/08/06 10:37:12;;;;;;;0.60;0.60;;;;;;;21.02;58.65;97947.75;6992696;28;20293;-86
2023/08/06 10:40:34;;;;;;;0.50;0.50;;;;;;;20.91;59.79;97954.44;6984758;28;20298;-84
2023/08/06 10:44:06;;;;;;;1.60;0.67;;;;;;;21.05;59.65;97953.44;6989019;28;20275;-82
2023/08/06 10:47:29;;;;;;;0.40;0.40;;;;;;;20.90;60.02;97941.84;6996046;28;20223;-83
2023/08/06 10:50:50;;;;;;;14.80;11.03;;;;;;;21.48;58.51;97944.94;7005767;28;20245;-82
2023/08/06 10:54:13;;;;;;;13.23;10.53;;;;;;;21.02;59.04;97942.25;6981199;28;20227;-83
2023/08/06 10:57:35;;;;;;;5.93;4.10;;;;;;;21.00;58.14;97903.38;7007286;28;20207;-82
2023/08/06 11:00:57;;;;;;;1.30;1.20;;;;;;;20.83;59.54;97952.31;7008333;28;20213;-82
2023/08/06 11:04:18;;;;;;;0.70;0.70;;;;;;;20.86;58.79;97949.81;6979511;28;20733;-84
2023/08/06 11:07:40;;;;;;;1.07;0.50;;;;;;;20.92;57.90;97917.75;7002054;28;20210;-84
2023/08/06 11:11:12;;;;;;;0.60;0.60;;;;;;;21.24;57.18;97946.91;6999251;28;20225;-85
2023/08/06 11:14:34;;;;;;;1.03;0.77;;;;;;;20.49;60.11;97948.84;6996787;28;20225;-85
2023/08/06 11:17:55;;;;;;;0.70;0.70;;;;;;;19.88;61.33;97907.47;7001043;28;20262;-83
2023/08/06 11:21:21;;;;;;;0.80;0.80;;;;;;;19.02;62.90;97930.16;6998174;28;20750;-83
2023/08/06 11:24:43;;;;;;;5.87;3.30;;;;;;;19.16;64.20;97972.97;6995358;28;20223;-83
2023/08/06 11:28:06;;;;;;;1.90;1.80;;;;;;;19.59;61.40;97968.69;6997764;28;20206;-84
2023/08/06 11:31:27;;;;;;;0.77;0.77;;;;;;;19.62;60.92;97976.31;6995144;28;20725;-84
2023/08/06 11:34:49;;;;;;;0.80;0.80;;;;;;;19.42;60.81;97993.69;7003353;28;20443;-86
2023/08/06 11:38:11;;;;;;;1.10;1.03;;;;;;;19.15;60.62;97992.38;6984413;28;20213;-84
2023/08/06 11:41:32;;;;;;;1.67;1.00;;;;;;;19.40;61.01;97997.78;6995432;28;20232;-84
2023/08/06 11:44:57;;;;;;;1.33;1.10;;;;;;;19.45;60.00;97998.56;7002978;28;20269;-82
2023/08/06 11:48:19;;;;;;;0.90;0.90;;;;;;;19.50;59.38;97997.72;7001441;28;20323;-83
2023/08/06 11:51:40;;;;;;;1.07;1.00;;;;;;;19.92;57.97;98009.78;7000487;28;20237;-84
2023/08/06 11:55:06;;;;;;;1.03;1.00;;;;;;;19.23;60.14;98003.59;7000665;28;20844;-84
2023/08/06 11:58:28;;;;;;;1.30;1.30;;;;;;;18.84;59.95;98026.38;7000311;28;20186;-84
2023/08/06 12:01:50;;;;;;;2.40;2.20;;;;;;;18.29;60.14;97937.16;7001022;28;20262;-84
2023/08/06 12:05:13;;;;;;;2.43;1.70;;;;;;;18.89;60.21;98029.09;6979606;28;20317;-83
2023/08/06 12:08:34;;;;;;;1.73;1.50;;;;;;;18.42;61.22;97974.00;6972402;28;20224;-83
2023/08/06 12:11:56;;;;;;;4.10;2.13;;;;;;;19.22;59.58;98042.94;6987573;28;20715;-84
2023/08/06 12:15:17;;;;;;;3.80;3.50;;;;;;;19.14;60.08;98040.78;6999992;28;20777;-84
2023/08/06 12:18:40;;;;;;;3.70;2.80;;;;;;;19.01;60.50;98059.66;6998948;28;20284;-83
2023/08/06 12:22:02;;;;;;;2.93;2.20;;;;;;;18.91;60.52;98049.56;6999829;28;20324;-83
2023/08/06 12:25:24;;;;;;;6.47;2.97;;;;;;;19.20;60.37;98056.06;7000001;28;20216;-84
2023/08/06 12:28:45;;;;;;;3.50;3.20;;;;;;;19.22;60.35;98055.81;7021123;28;20212;-84
2023/08/06 12:32:07;;;;;;;3.07;2.50;;;;;;;19.20;60.71;98075.19;7028771;28;20294;-83
2023/08/06 12:35:30;;;;;;;3.53;2.37;;;;;;;18.82;61.38;98059.41;7028457;28;20266;-84
2023/08/06 12:38:51;;;;;;;2.23;2.03;;;;;;;18.70;61.56;98082.66;7010761;28;20292;-83
2023/08/06 12:42:13;;;;;;;2.90;2.30;;;;;;;18.84;60.52;98083.72;6982764;28;20697;-83
2023/08/06 12:45:34;;;;;;;7.53;5.17;;;;;;;18.53;61.54;98096.59;6997580;28;20235;-84
2023/08/06 12:48:57;;;;;;;4.00;2.40;;;;;;;18.57;60.46;98096.88;7000475;28;20233;-82
2023/08/06 12:52:20;;;;;;;2.30;2.10;;;;;;;18.82;60.18;98105.84;6984733;28;20237;-87
2023/08/06 12:55:43;;;;;;;2.00;1.90;;;;;;;18.76;59.29;98100.69;6972847;28;20598;-85
2023/08/06 12:59:04;;;;;;;2.50;1.90;;;;;;;18.97;58.88;98088.63;6975781;28;20283;-83
2023/08/06 13:02:29;;;;;;;2.57;1.80;;;;;;;19.21;57.68;98070.59;6973183;28;20952;-83
2023/08/06 13:05:52;;;;;;;1.87;1.60;;;;;;;19.90;56.35;98083.13;6974069;28;20212;-84
2023/08/06 13:09:15;;;;;;;1.73;1.43;;;;;;;19.94;55.53;98094.31;6973564;28;20232;-83
2023/08/06 13:12:38;;;;;;;1.77;1.40;;;;;;;19.75;56.17;98096.88;6978522;28;20222;-85
2023/08/06 13:15:59;;;;;;;1.80;1.30;;;;;;;19.59;55.69;98100.78;6987139;28;20272;-83
2023/08/06 13:19:21;;;;;;;1.40;1.30;;;;;;;19.72;55.83;98110.28;6985862;28;20865;-82
2023/08/06 13:22:43;;;;;;;2.27;1.50;;;;;;;20.07;56.47;98097.31;6984774;28;20218;-82
2023/08/06 13:26:06;;;;;;;1.50;1.40;;;;;;;19.84;55.22;98102.59;7004306;28;20209;-82
2023/08/06 13:29:27;;;;;;;1.17;1.17;;;;;;;19.95;54.54;98105.00;6998811;28;20294;-81
2023/08/06 13:32:49;;;;;;;1.80;1.30;;;;;;;20.20;55.03;98101.31;6995277;28;20738;-81
2023/08/06 13:36:10;;;;;;;1.50;1.40;;;;;;;20.22;54.05;98123.75;6993527;28;20351;-82
2023/08/06 13:39:32;;;;;;;1.40;1.30;;;;;;;20.17;53.57;98113.63;6997404;28;20312;-81
2023/08/06 13:42:55;;;;;;;1.53;1.27;;;;;;;20.35;53.45;98117.66;7011057;28;20260;-82
2023/08/06 13:46:18;;;;;;;2.37;1.23;;;;;;;19.83;53.84;98120.09;6979609;28;20233;-81
2023/08/06 13:49:39;;;;;;;3.53;3.20;;;;;;;20.05;53.13;98088.50;6977502;28;20202;-83
2023/08/06 13:53:02;;;;;;;1.50;1.40;;;;;;;20.35;52.75;98114.91;6975097;28;20302;-82
2023/08/06 13:56:23;;;;;;;1.73;1.50;;;;;;;20.35;52.58;98123.13;6976254;28;20206;-82
2023/08/06 13:59:46;;;;;;;1.13;1.07;;;;;;;20.64;51.75;98122.06;6980064;28;20230;-82
2023/08/06 14:03:08;;;;;;;1.80;1.70;;;;;;;20.46;51.69;98119.22;6982439;28;20214;-82
2023/08/06 14:06:30;;;;;;;1.00;1.00;;;;;;;20.23;51.23;98128.13;6986570;28;20206;-82
2023/08/06 14:09:51;;;;;;;2.10;1.00;;;;;;;19.99;51.67;98138.88;7005294;28;20210;-82
2023/08/06 14:13:13;;;;;;;1.17;0.90;;;;;;;20.11;51.98;98136.66;7013138;28;20242;-82
2023/08/06 14:16:36;;;;;;;1.87;1.23;;;;;;;20.14;51.86;98143.50;6986967;28;20338;-82
2023/08/06 14:19:57;;;;;;;1.23;1.10;;;;;;;19.96;51.95;98146.84;6986932;28;20737;-81
2023/08/06 14:23:19;;;;;;;6.77;5.37;;;;;;;19.48;53.58;98167.56;6984326;28;20364;-80
2023/08/06 14:26:40;;;;;;;7.33;5.23;;;;;;;19.37;55.51;98174.13;6996917;28;20264;-81
2023/08/06 14:30:03;;;;;;;6.10;3.97;;;;;;;19.17;57.32;98140.50;7014024;28;20206;-85
2023/08/06 14:33:25;;;;;;;10.10;5.83;;;;;;;19.45;55.60;98173.56;7011882;28;20229;-82
2023/08/06 14:36:47;;;;;;;6.73;4.40;;;;;;;19.89;53.54;98177.25;6985971;28;20206;-83
2023/08/06 14:40:10;;;;;;;4.97;3.67;;;;;;;19.62;53.41;98168.59;6979869;28;20195;-84
2023/08/06 14:43:32;;;;;;;2.10;1.53;;;;;;;20.09;53.25;98174.47;6984497;28;20377;-82
2023/08/06 14:46:54;;;;;;;2.23;2.03;;;;;;;20.45;51.89;98191.53;6989010;28;20213;-85
2023/08/06 14:50:17;;;;;;;1.60;1.50;;;;;;;20.67;51.60;98181.78;6985958;28;20291;-82
2023/08/06 14:53:40;;;;;;;3.57;1.87;;;;;;;20.60;51.30;98183.19;6980023;28;20226;-82
2023/08/06 14:57:01;;;;;;;1.50;1.40;;;;;;;20.58;51.64;98186.22;6977962;28;20297;-83
2023/08/06 15:00:23;;;;;;;2.13;1.20;;;;;;;21.22;50.41;98175.06;6971691;28;20253;-83
2023/08/06 15:03:44;;;;;;;1.50;1.40;;;;;;;21.01;50.60;98190.06;6981118;28;20194;-83
2023/08/06 15:07:09;;;;;;;5.07;1.93;;;;;;;21.01;53.53;98204.59;6990352;28;20273;-83
2023/08/06 15:10:31;;;;;;;1.47;1.37;;;;;;;20.28;55.14;98219.25;6981182;28;20226;-83
2023/08/06 15:13:52;;;;;;;1.40;1.30;;;;;;;19.44;57.40;98223.03;6995725;28;20239;-81
2023/08/06 15:17:14;;;;;;;1.33;1.23;;;;;;;19.66;57.07;98221.66;7003268;28;20288;-82
2023/08/06 15:20:35;;;;;;;1.30;1.20;;;;;;;18.55;58.17;98157.19;6993600;28;20218;-83
2023/08/06 15:23:58;;;;;;;1.40;1.20;;;;;;;19.30;57.36;98239.22;6979823;28;20695;-83
2023/08/06 15:27:19;;;;;;;1.13;1.10;;;;;;;19.26;57.73;98231.81;6981142;28;20206;-82
2023/08/06 15:30:45;;;;;;;1.50;1.40;;;;;;;19.26;57.25;98248.19;6991384;28;20242;-82
2023/08/06 15:34:06;;;;;;;2.03;1.87;;;;;;;18.99;57.89;98247.63;6980885;28;20226;-82
2023/08/06 15:37:29;;;;;;;9.83;6.57;;;;;;;18.93;57.19;98207.75;6995417;28;20209;-82
2023/08/06 15:40:52;;;;;;;11.97;7.90;;;;;;;19.40;55.87;98243.84;7001518;28;20229;-82
2023/08/06 15:44:14;;;;;;;2.93;2.63;;;;;;;19.72;55.13;98244.31;6980580;28;20229;-82
2023/08/06 15:47:40;;;;;;;1.80;1.70;;;;;;;20.14;54.95;98242.03;6971504;28;20681;-83
2023/08/06 15:51:02;;;;;;;1.60;1.50;;;;;;;20.28;53.43;98238.41;6989321;28;20266;-83
2023/08/06 15:54:24;;;;;;;3.07;1.83;;;;;;;20.07;54.34;98247.81;6999002;28;20655;-82